Time;durP1;ratioP1;P1;durP2;ratioP2;P2;SDS_P1;SDS_P2;PMS_P1;PMS_P2;Temp;Humidity;BMP_temperature;BMP_pressure;BME280_temperature;BME280_humidity;BME280_pressure;Samples;Min_cycle;Max_cycle;Signal;HPM_P1;HPM_P2
2023/05/17 00:05:35;;;;;;;6.05;2.17;;;8.40;99.90;;;;;;12451664;28;20056;-35
2023/05/17 00:11:41;;;;;;;7.63;2.60;;;8.30;99.90;;;;;;12492364;28;20464;-35
2023/05/17 00:17:43;;;;;;;;;;;8.40;99.90;;;;;;12471688;28;20088;-35
2023/05/17 00:23:49;;;;;;;7.85;2.80;;;8.30;99.90;;;;;;12481680;28;19921;-35
2023/05/17 00:29:51;;;;;;;7.00;2.38;;;8.30;99.90;;;;;;12484066;28;20437;-36
2023/05/17 00:35:54;;;;;;;7.90;2.63;;;8.30;99.90;;;;;;12485171;28;20041;-35
2023/05/17 00:42:00;;;;;;;10.73;2.83;;;8.30;99.90;;;;;;12491069;28;20151;-36
2023/05/17 00:48:04;;;;;;;6.22;2.30;;;8.50;99.90;;;;;;12487480;28;20065;-35
2023/05/17 00:54:08;;;;;;;9.40;2.78;;;8.90;99.90;;;;;;12481545;28;20041;-35
2023/05/17 01:00:13;;;;;;;10.30;2.67;;;9.00;99.90;;;;;;12462993;28;20504;-35
2023/05/17 01:06:16;;;;;;;;;;;8.90;99.90;;;;;;12482814;28;20079;-35
2023/05/17 01:13:04;;;;;;;8.73;2.45;;;8.80;99.90;;;;;;12487802;28;19922;-35
2023/05/17 01:19:35;;;;;;;10.60;2.80;;;8.80;99.90;;;;;;12474946;28;20140;-36
2023/05/17 01:25:56;;;;;;;8.18;2.78;;;8.30;99.90;;;;;;12477209;28;20103;-35
2023/05/17 01:32:04;;;;;;;11.48;3.42;;;8.30;99.90;;;;;;12502505;28;20195;-35
2023/05/17 01:38:08;;;;;;;10.40;2.88;;;8.10;99.90;;;;;;12484053;28;20049;-35
2023/05/17 01:44:25;;;;;;;9.80;3.10;;;8.20;99.90;;;;;;12460137;28;20041;-35
2023/05/17 01:50:31;;;;;;;9.23;3.30;;;8.20;99.90;;;;;;12485994;28;20045;-35
2023/05/17 01:56:39;;;;;;;10.88;3.25;;;8.00;99.90;;;;;;12477452;28;20088;-35
2023/05/17 02:02:45;;;;;;;14.63;3.38;;;7.90;99.90;;;;;;12487349;28;20490;-35
2023/05/17 02:08:48;;;;;;;14.52;3.78;;;7.70;99.90;;;;;;12498154;28;20066;-35
2023/05/17 02:14:51;;;;;;;10.82;3.20;;;7.80;99.90;;;;;;12499953;28;20071;-35
2023/05/17 02:20:54;;;;;;;13.35;3.28;;;7.80;99.90;;;;;;12498201;28;20057;-35
2023/05/17 02:26:59;;;;;;;16.27;3.80;;;7.80;99.90;;;;;;12492650;28;20049;-35
2023/05/17 02:33:03;;;;;;;14.23;3.72;;;7.80;99.90;;;;;;12496230;28;20065;-35
2023/05/17 02:39:06;;;;;;;16.27;5.07;;;7.90;99.90;;;;;;12502330;28;20053;-35
2023/05/17 02:45:10;;;;;;;20.60;4.28;;;7.90;99.90;;;;;;12485360;28;20048;-35
2023/05/17 02:51:13;;;;;;;13.75;3.92;;;7.90;99.90;;;;;;12501072;28;20049;-35
2023/05/17 02:57:17;;;;;;;13.82;3.95;;;8.00;99.90;;;;;;12492332;28;20049;-35
2023/05/17 03:03:20;;;;;;;16.63;3.83;;;7.90;99.90;;;;;;12504954;28;20508;-36
2023/05/17 03:09:23;;;;;;;15.15;3.60;;;7.90;99.90;;;;;;12453054;28;20046;-36
2023/05/17 03:15:28;;;;;;;13.93;3.63;;;7.90;99.90;;;;;;12463754;28;20048;-36
2023/05/17 03:21:32;;;;;;;16.73;4.28;;;7.80;99.90;;;;;;12432779;28;20506;-36
2023/05/17 03:27:35;;;;;;;11.20;3.30;;;7.70;99.90;;;;;;12447339;28;20097;-36
2023/05/17 03:33:40;;;;;;;26.37;4.47;;;7.60;99.90;;;;;;12416486;28;20077;-35
2023/05/17 03:39:43;;;;;;;17.10;4.22;;;7.60;99.90;;;;;;12440554;28;20128;-36
2023/05/17 03:45:47;;;;;;;19.77;4.63;;;7.50;99.90;;;;;;12438168;28;20049;-35
2023/05/17 03:51:51;;;;;;;15.07;4.13;;;7.50;99.90;;;;;;12429006;28;20532;-35
2023/05/17 03:57:54;;;;;;;12.60;3.45;;;7.50;99.90;;;;;;12451411;28;20422;-35
2023/05/17 04:04:00;;;;;;;18.02;4.82;;;7.50;99.90;;;;;;12437862;28;20069;-36
2023/05/17 04:10:04;;;;;;;14.77;3.72;;;8.10;99.90;;;;;;12492347;28;20065;-35
2023/05/17 04:16:08;;;;;;;10.33;4.10;;;9.30;99.90;;;;;;12515819;28;20104;-35
2023/05/17 04:22:12;;;;;;;18.83;3.57;;;9.80;99.90;;;;;;12487797;28;20300;-35
2023/05/17 04:28:16;;;;;;;11.27;3.70;;;8.80;99.90;;;;;;12486398;28;20049;-36
2023/05/17 04:34:22;;;;;;;11.48;3.60;;;8.10;99.90;;;;;;12489223;28;20506;-35
2023/05/17 04:40:30;;;;;;;11.38;3.63;;;8.10;99.90;;;;;;12494876;28;20041;-35
2023/05/17 04:46:36;;;;;;;18.65;3.92;;;8.10;99.90;;;;;;12511440;28;20052;-35
2023/05/17 04:52:48;;;;;;;20.02;4.75;;;8.00;99.90;;;;;;12479935;28;20049;-35
2023/05/17 04:58:51;;;;;;;18.55;4.22;;;8.40;99.90;;;;;;12446832;28;20515;-35
2023/05/17 05:04:55;;;;;;;15.17;4.13;;;8.20;99.90;;;;;;12428295;28;20049;-35
2023/05/17 05:11:05;;;;;;;18.37;4.10;;;8.30;99.90;;;;;;12443739;28;20462;-35
2023/05/17 05:17:09;;;;;;;10.77;4.07;;;8.30;99.90;;;;;;12453381;28;20056;-35
2023/05/17 05:23:17;;;;;;;14.18;3.83;;;8.60;99.90;;;;;;12454870;28;20057;-35
2023/05/17 05:29:21;;;;;;;16.58;3.38;;;8.90;99.90;;;;;;12468348;28;20057;-35
2023/05/17 05:35:29;;;;;;;15.00;3.03;;;9.40;99.90;;;;;;12463012;28;20041;-36
2023/05/17 05:41:46;;;;;;;18.52;3.15;;;9.50;99.90;;;;;;12494267;28;20049;-35
2023/05/17 05:47:52;;;;;;;11.07;2.40;;;9.30;99.90;;;;;;12490291;28;20053;-35
2023/05/17 05:54:00;;;;;;;13.63;2.85;;;9.50;99.90;;;;;;12448010;28;20049;-35
2023/05/17 06:00:06;;;;;;;15.65;3.13;;;9.40;99.90;;;;;;12481987;28;20517;-36
2023/05/17 06:06:15;;;;;;;10.82;2.05;;;9.30;99.90;;;;;;12467878;28;20410;-36
2023/05/17 06:12:26;;;;;;;12.70;2.33;;;9.30;99.90;;;;;;12511310;28;20115;-35
2023/05/17 06:18:33;;;;;;;12.32;2.33;;;9.50;99.90;;;;;;12510896;28;20509;-35
2023/05/17 06:24:37;;;;;;;10.77;2.15;;;9.50;99.90;;;;;;12497400;28;20517;-35
2023/05/17 06:30:39;;;;;;;11.70;2.08;;;9.30;99.90;;;;;;12491481;28;20041;-35
2023/05/17 06:36:44;;;;;;;9.68;1.52;;;9.20;99.90;;;;;;12510365;28;20104;-35
2023/05/17 06:42:49;;;;;;;8.68;1.45;;;9.30;99.90;;;;;;12488720;28;20243;-35
2023/05/17 06:48:53;;;;;;;10.80;1.90;;;9.40;99.90;;;;;;12499475;28;20057;-35
2023/05/17 06:54:56;;;;;;;9.57;2.67;;;9.40;99.90;;;;;;12479970;28;20505;-35
2023/05/17 07:01:01;;;;;;;10.17;1.60;;;9.40;99.90;;;;;;12518655;28;20045;-35
2023/05/17 07:07:05;;;;;;;10.88;1.70;;;9.30;99.90;;;;;;12509034;28;20345;-35
2023/05/17 07:13:10;;;;;;;12.13;1.90;;;9.30;99.90;;;;;;12480265;28;20478;-35
2023/05/17 07:19:15;;;;;;;10.65;1.67;;;9.40;99.90;;;;;;12490472;28;20049;-35
2023/05/17 07:25:20;;;;;;;10.35;1.63;;;9.70;99.90;;;;;;12478036;28;20057;-35
2023/05/17 07:31:25;;;;;;;12.82;2.60;;;9.70;99.90;;;;;;12494714;28;20054;-35
2023/05/17 07:37:28;;;;;;;8.88;1.38;;;9.70;99.90;;;;;;12493770;28;20053;-35
2023/05/17 07:43:31;;;;;;;7.87;1.40;;;10.30;99.90;;;;;;12498095;28;20049;-35
2023/05/17 07:49:35;;;;;;;11.15;1.27;;;10.50;99.90;;;;;;12489245;28;20092;-35
2023/05/17 07:55:39;;;;;;;7.30;1.73;;;10.80;99.90;;;;;;12492488;28;20049;-35
2023/05/17 08:01:51;;;;;;;12.63;1.50;;;10.60;99.90;;;;;;12474273;28;20560;-36
2023/05/17 08:07:59;;;;;;;8.05;1.33;;;10.50;99.90;;;;;;12474582;28;20050;-36
2023/05/17 08:14:04;;;;;;;8.43;1.52;;;10.60;99.90;;;;;;12463144;28;20140;-36
2023/05/17 08:20:09;;;;;;;11.63;1.30;;;10.70;99.90;;;;;;12478191;28;20102;-36
2023/05/17 08:26:12;;;;;;;9.27;1.73;;;10.10;99.90;;;;;;12490719;28;20049;-35
2023/05/17 08:32:15;;;;;;;10.00;1.48;;;10.60;99.90;;;;;;12486907;28;20405;-35
2023/05/17 08:38:19;;;;;;;8.35;1.40;;;10.60;99.90;;;;;;12473088;28;20045;-36
2023/05/17 08:44:23;;;;;;;9.95;1.10;;;10.70;99.90;;;;;;12472813;28;20045;-35
2023/05/17 08:50:30;;;;;;;10.98;1.48;;;10.60;99.90;;;;;;12486024;28;20401;-35
2023/05/17 08:56:38;;;;;;;8.90;1.67;;;10.60;99.90;;;;;;12489401;28;20080;-36
2023/05/17 09:02:41;;;;;;;8.65;1.13;;;10.80;99.90;;;;;;12475605;28;20565;-35
2023/05/17 09:08:46;;;;;;;10.05;1.42;;;10.80;99.90;;;;;;12485943;28;20058;-35
2023/05/17 09:14:50;;;;;;;9.18;1.38;;;10.70;99.90;;;;;;12462588;28;20038;-36
2023/05/17 09:20:53;;;;;;;7.10;1.33;;;10.90;99.90;;;;;;12493451;28;20111;-36
2023/05/17 09:27:03;;;;;;;12.63;2.20;;;11.10;99.90;;;;;;12490394;28;20057;-36
2023/05/17 09:33:07;;;;;;;13.80;2.30;;;11.20;99.90;;;;;;12480737;28;20401;-36
2023/05/17 09:39:13;;;;;;;9.48;2.00;;;11.40;99.90;;;;;;12478428;28;20124;-36
2023/05/17 09:45:25;;;;;;;9.10;1.50;;;11.70;99.90;;;;;;12466751;28;20103;-36
2023/05/17 09:51:33;;;;;;;6.50;1.50;;;11.90;99.90;;;;;;12521525;28;20054;-36
2023/05/17 09:57:40;;;;;;;11.10;1.70;;;12.50;99.90;;;;;;12476350;28;20044;-36
2023/05/17 10:03:44;;;;;;;7.95;1.42;;;12.10;99.90;;;;;;12485279;28;20061;-36
2023/05/17 10:09:48;;;;;;;10.57;1.52;;;12.00;99.90;;;;;;12502294;28;20061;-36
2023/05/17 10:15:54;;;;;;;8.95;1.90;;;12.50;99.90;;;;;;12466188;28;20094;-36
2023/05/17 10:21:58;;;;;;;8.63;1.77;;;12.40;99.90;;;;;;12478876;28;20046;-37
2023/05/17 10:28:22;;;;;;;10.63;2.00;;;12.30;99.90;;;;;;12466154;28;20124;-37
2023/05/17 10:34:26;;;;;;;9.70;1.70;;;12.00;99.90;;;;;;12482946;28;20037;-37
2023/05/17 10:40:30;;;;;;;9.68;1.75;;;12.70;99.90;;;;;;12505912;28;22287;-36
2023/05/17 10:46:38;;;;;;;8.70;1.52;;;13.00;99.90;;;;;;12500710;28;20061;-37
2023/05/17 10:52:48;;;;;;;12.05;1.80;;;12.60;99.90;;;;;;12494408;28;20065;-37
2023/05/17 10:59:13;;;;;;;7.97;1.80;;;12.60;99.90;;;;;;12488065;28;20578;-36
2023/05/17 11:05:26;;;;;;;8.15;1.48;;;13.20;99.90;;;;;;12502466;28;20108;-37
2023/05/17 11:11:30;;;;;;;9.70;2.00;;;13.50;99.90;;;;;;12481596;28;20151;-36
2023/05/17 11:17:42;;;;;;;10.13;1.90;;;13.30;99.90;;;;;;12480427;28;20151;-37
2023/05/17 11:23:46;;;;;;;11.50;2.10;;;12.40;99.90;;;;;;12489643;28;20041;-36
2023/05/17 11:29:50;;;;;;;10.50;1.80;;;12.90;99.90;;;;;;12479294;28;20505;-36
2023/05/17 11:35:54;;;;;;;10.25;1.88;;;12.70;99.90;;;;;;12500220;28;20068;-36
2023/05/17 11:42:03;;;;;;;8.63;1.60;;;12.70;99.90;;;;;;12474329;28;20042;-37
2023/05/17 11:48:07;;;;;;;7.75;1.77;;;13.00;99.90;;;;;;12489955;28;20064;-37
2023/05/17 11:54:14;;;;;;;7.82;1.40;;;13.30;99.90;;;;;;12489128;28;20053;-37
2023/05/17 12:00:27;;;;;;;11.93;2.10;;;13.00;99.90;;;;;;12488396;28;20140;-37
2023/05/17 12:06:33;;;;;;;;;;;12.70;99.90;;;;;;12500344;28;20049;-36
2023/05/17 12:12:37;;;;;;;8.70;2.03;;;12.70;99.90;;;;;;12465600;28;20337;-37
2023/05/17 12:18:43;;;;;;;8.70;1.70;;;13.40;99.90;;;;;;12496433;28;20084;-36
2023/05/17 12:24:47;;;;;;;9.35;2.20;;;13.70;99.90;;;;;;12457811;28;20319;-36
2023/05/17 12:31:02;;;;;;;7.30;1.95;;;13.60;99.90;;;;;;12491167;28;20061;-36
2023/05/17 12:37:09;;;;;;;7.03;1.80;;;13.50;99.90;;;;;;12491576;28;20079;-37
2023/05/17 12:43:13;;;;;;;7.65;1.73;;;13.10;99.90;;;;;;12483930;28;20056;-36
2023/05/17 12:49:16;;;;;;;10.80;2.10;;;13.00;99.90;;;;;;12494856;28;20054;-36
2023/05/17 12:55:21;;;;;;;8.80;1.83;;;12.90;99.90;;;;;;12485178;28;20049;-36
2023/05/17 13:01:24;;;;;;;7.45;1.73;;;12.90;99.90;;;;;;12475923;28;20053;-36
2023/05/17 13:07:28;;;;;;;7.57;1.67;;;13.50;99.90;;;;;;12479655;28;20065;-37
2023/05/17 13:13:35;;;;;;;8.07;1.40;;;14.40;99.90;;;;;;12494705;28;20104;-36
2023/05/17 13:19:39;;;;;;;7.60;1.73;;;14.40;99.90;;;;;;12495191;28;20123;-37
2023/05/17 13:25:43;;;;;;;;;;;14.20;99.90;;;;;;12492386;28;20410;-36
2023/05/17 13:31:47;;;;;;;8.55;1.80;;;13.50;99.90;;;;;;12503662;28;19974;-36
2023/05/17 13:37:50;;;;;;;11.15;1.50;;;14.10;99.90;;;;;;12501741;28;20500;-36
2023/05/17 13:43:53;;;;;;;5.35;1.33;;;14.20;99.90;;;;;;12492838;28;20046;-36
2023/05/17 13:50:00;;;;;;;7.80;2.20;;;14.20;99.90;;;;;;12475779;28;20056;-37
2023/05/17 13:56:04;;;;;;;6.03;1.52;;;13.30;99.90;;;;;;12491368;28;20501;-36
2023/05/17 14:02:09;;;;;;;8.77;1.42;;;13.00;99.90;;;;;;12489655;28;20064;-37
2023/05/17 14:08:13;;;;;;;7.28;1.70;;;13.20;99.90;;;;;;12442377;28;20049;-36
2023/05/17 14:14:15;;;;;;;10.45;2.78;;;12.70;99.90;;;;;;12428992;28;21180;-40
2023/05/17 14:20:19;;;;;;;6.80;1.35;;;13.10;99.90;;;;;;12458697;28;20045;-37
2023/05/17 14:26:23;;;;;;;6.83;1.60;;;13.90;99.90;;;;;;12441477;28;21127;-37
2023/05/17 14:32:25;;;;;;;8.73;1.98;;;14.00;99.90;;;;;;12455382;28;20076;-37
2023/05/17 14:38:29;;;;;;;9.27;1.52;;;13.60;99.90;;;;;;12447159;28;20042;-36
2023/05/17 14:44:33;;;;;;;7.20;1.60;;;13.30;99.90;;;;;;12453322;28;20101;-36
2023/05/17 14:50:39;;;;;;;11.45;1.67;;;13.10;99.90;;;;;;12440149;28;20097;-36
2023/05/17 14:56:44;;;;;;;8.48;1.70;;;12.80;99.90;;;;;;12450078;28;20105;-36
2023/05/17 15:02:48;;;;;;;5.13;1.40;;;12.60;99.90;;;;;;12466856;28;20042;-36
2023/05/17 15:08:53;;;;;;;9.07;1.85;;;12.50;99.90;;;;;;12442159;28;20050;-36
2023/05/17 15:14:57;;;;;;;6.75;1.52;;;13.00;99.90;;;;;;12398700;28;20046;-37
2023/05/17 15:21:01;;;;;;;6.18;1.40;;;13.70;99.90;;;;;;12396019;28;20042;-36
2023/05/17 15:27:05;;;;;;;5.75;1.25;;;13.90;99.90;;;;;;12395044;28;20046;-36
2023/05/17 15:33:08;;;;;;;6.40;1.53;;;13.90;99.90;;;;;;12368699;28;20047;-36
2023/05/17 15:39:13;;;;;;;5.20;1.38;;;13.90;99.90;;;;;;12373961;28;20125;-36
2023/05/17 15:45:22;;;;;;;6.15;1.58;;;13.40;99.90;;;;;;12380172;28;20065;-36
2023/05/17 15:51:33;;;;;;;6.30;1.40;;;13.90;99.90;;;;;;12377332;28;20491;-36
2023/05/17 15:57:37;;;;;;;5.65;1.30;;;14.30;99.90;;;;;;12402293;28;20054;-36
2023/05/17 16:03:41;;;;;;;4.07;1.45;;;14.60;99.90;;;;;;12400805;28;20042;-37
2023/05/17 16:09:44;;;;;;;6.18;1.70;;;13.90;99.90;;;;;;12400162;28;20064;-37
2023/05/17 16:15:48;;;;;;;7.77;1.80;;;13.80;99.90;;;;;;12474192;28;20045;-36
2023/05/17 16:21:52;;;;;;;7.05;1.33;;;13.80;99.90;;;;;;12492897;28;20452;-37
2023/05/17 16:27:57;;;;;;;5.88;1.70;;;14.10;99.90;;;;;;12488939;28;20092;-36
2023/05/17 16:34:00;;;;;;;6.63;1.60;;;14.00;99.90;;;;;;12468275;28;20056;-37
2023/05/17 16:40:04;;;;;;;10.43;1.85;;;13.20;99.90;;;;;;12484282;28;20334;-36
2023/05/17 16:46:08;;;;;;;11.48;1.95;;;13.30;99.90;;;;;;12461671;28;20127;-37
2023/05/17 16:52:12;;;;;;;7.60;1.60;;;13.50;99.90;;;;;;12493906;28;20132;-37
2023/05/17 16:58:15;;;;;;;6.63;1.57;;;14.10;99.90;;;;;;12494494;28;20502;-37
2023/05/17 17:04:18;;;;;;;5.05;1.35;;;14.10;99.90;;;;;;12480075;28;20045;-37
2023/05/17 17:10:21;;;;;;;10.13;2.07;;;14.80;99.90;;;;;;12459203;28;20141;-37
2023/05/17 17:16:28;;;;;;;7.30;1.70;;;15.20;99.90;;;;;;12506253;28;20071;-37
2023/05/17 17:22:36;;;;;;;6.95;1.60;;;15.20;99.90;;;;;;12481576;28;20083;-37
2023/05/17 17:28:40;;;;;;;7.43;1.40;;;14.90;99.90;;;;;;12492708;28;20136;-37
2023/05/17 17:34:43;;;;;;;5.97;1.67;;;14.20;99.90;;;;;;12475857;28;20148;-37
2023/05/17 17:40:48;;;;;;;8.93;2.13;;;14.50;99.90;;;;;;12491821;28;20056;-37
2023/05/17 17:46:51;;;;;;;7.55;2.28;;;15.30;99.90;;;;;;12505228;28;20049;-37
2023/05/17 17:52:56;;;;;;;7.97;1.50;;;15.90;99.90;;;;;;12491163;28;20073;-37
2023/05/17 17:58:59;;;;;;;8.90;1.98;;;15.90;99.90;;;;;;12496642;28;20105;-37
2023/05/17 18:05:02;;;;;;;9.85;2.58;;;14.70;99.90;;;;;;12507230;28;20049;-35
2023/05/17 18:11:06;;;;;;;10.15;2.15;;;12.50;99.90;;;;;;12506237;28;20058;-35
2023/05/17 18:17:10;;;;;;;10.85;1.65;;;12.30;99.90;;;;;;12504466;28;20460;-36
2023/05/17 18:23:15;;;;;;;10.13;1.87;;;12.00;99.90;;;;;;12495033;28;20437;-35
2023/05/17 18:29:18;;;;;;;10.68;2.05;;;11.40;99.90;;;;;;12469034;28;20289;-35
2023/05/17 18:35:21;;;;;;;9.03;1.73;;;11.40;99.90;;;;;;12485715;28;20053;-35
2023/05/17 18:41:26;;;;;;;8.68;1.80;;;11.20;99.90;;;;;;12528053;28;20064;-35
2023/05/17 18:47:29;;;;;;;13.07;1.75;;;11.00;99.90;;;;;;12482258;28;20523;-35
2023/05/17 18:53:34;;;;;;;8.15;1.27;;;10.80;99.90;;;;;;12486188;28;20501;-35
2023/05/17 18:59:38;;;;;;;8.65;1.67;;;10.50;99.90;;;;;;12481552;28;20041;-35
2023/05/17 19:05:41;;;;;;;9.17;1.70;;;10.20;99.90;;;;;;12487174;28;20096;-36
2023/05/17 19:11:45;;;;;;;11.40;1.80;;;9.90;99.90;;;;;;12499292;28;20501;-36
2023/05/17 19:17:47;;;;;;;11.10;1.65;;;10.00;99.90;;;;;;12499933;28;20056;-36
2023/05/17 19:23:51;;;;;;;8.25;1.75;;;9.70;99.90;;;;;;12495953;28;20045;-35
2023/05/17 19:29:53;;;;;;;8.48;2.22;;;9.60;99.90;;;;;;12510521;28;20045;-36
2023/05/17 19:35:57;;;;;;;9.82;2.13;;;9.40;99.90;;;;;;12491267;28;20053;-36
2023/05/17 19:42:00;;;;;;;9.73;1.90;;;9.40;99.90;;;;;;12516493;28;20049;-36
2023/05/17 19:48:06;;;;;;;5.88;1.70;;;9.40;99.90;;;;;;12503153;28;20041;-35
2023/05/17 19:54:09;;;;;;;7.70;1.90;;;9.30;99.90;;;;;;12498312;28;20046;-35
2023/05/17 20:00:17;;;;;;;9.50;2.33;;;8.90;99.90;;;;;;12477240;28;20473;-35
2023/05/17 20:06:20;;;;;;;9.35;1.90;;;9.00;99.90;;;;;;12490410;28;20057;-35
2023/05/17 20:12:30;;;;;;;9.70;2.20;;;9.10;99.90;;;;;;12480421;28;20049;-35
2023/05/17 20:18:32;;;;;;;4.82;1.85;;;9.20;99.90;;;;;;12483202;28;20050;-35
2023/05/17 20:24:35;;;;;;;9.70;2.28;;;8.90;99.90;;;;;;12493339;28;20041;-35
2023/05/17 20:30:44;;;;;;;6.80;2.10;;;9.10;99.90;;;;;;12476246;28;20065;-36
2023/05/17 20:36:47;;;;;;;7.60;2.15;;;9.50;99.90;;;;;;12485974;28;20120;-35
2023/05/17 20:42:51;;;;;;;6.88;2.08;;;9.50;99.90;;;;;;12470847;28;20457;-35
2023/05/17 20:48:56;;;;;;;5.85;2.20;;;9.50;99.90;;;;;;12493417;28;20054;-35
2023/05/17 20:54:59;;;;;;;10.98;2.03;;;9.40;99.90;;;;;;12428686;28;20050;-35
2023/05/17 21:01:08;;;;;;;7.38;2.08;;;9.30;99.90;;;;;;12444094;28;20387;-35
2023/05/17 21:07:11;;;;;;;8.18;2.15;;;9.20;99.90;;;;;;12439571;28;20060;-35
2023/05/17 21:13:15;;;;;;;6.40;2.30;;;9.20;99.90;;;;;;12442866;28;20054;-34
2023/05/17 21:19:17;;;;;;;8.73;2.40;;;9.20;99.90;;;;;;12444051;28;20511;-35
2023/05/17 21:25:21;;;;;;;7.97;2.13;;;9.30;99.90;;;;;;12437404;28;20534;-35
2023/05/17 21:31:32;;;;;;;7.05;2.50;;;9.30;99.90;;;;;;12439554;28;20058;-35
2023/05/17 21:37:38;;;;;;;7.80;2.22;;;9.10;99.90;;;;;;12439737;28;20053;-35
2023/05/17 21:43:42;;;;;;;8.18;2.60;;;8.90;99.90;;;;;;12444859;28;20054;-35
2023/05/17 21:49:47;;;;;;;11.30;2.87;;;8.80;99.90;;;;;;12439142;28;20034;-35
2023/05/17 21:55:56;;;;;;;5.97;2.60;;;8.80;99.90;;;;;;12443665;28;20528;-35
2023/05/17 22:02:07;;;;;;;8.63;2.92;;;8.70;99.90;;;;;;12450626;28;20094;-35
2023/05/17 22:08:10;;;;;;;10.52;3.10;;;8.60;99.90;;;;;;12422370;28;20050;-35
2023/05/17 22:14:13;;;;;;;10.05;3.03;;;8.50;99.90;;;;;;12399413;28;20038;-35
2023/05/17 22:20:18;;;;;;;5.88;2.85;;;8.20;99.90;;;;;;12396894;28;20058;-35
2023/05/17 22:26:21;;;;;;;8.48;2.92;;;8.10;99.90;;;;;;12398408;28;20038;-35
2023/05/17 22:32:25;;;;;;;6.88;2.88;;;8.00;99.90;;;;;;12403855;28;20050;-35
2023/05/17 22:38:29;;;;;;;7.63;2.90;;;8.20;99.90;;;;;;12378690;28;20061;-35
2023/05/17 22:44:33;;;;;;;11.20;3.10;;;8.30;99.90;;;;;;12407855;28;20046;-35
2023/05/17 22:50:40;;;;;;;10.88;3.10;;;8.30;99.90;;;;;;12405995;28;20182;-35
2023/05/17 22:56:45;;;;;;;7.00;2.75;;;8.20;99.90;;;;;;12398345;28;20138;-35
2023/05/17 23:02:48;;;;;;;7.82;2.80;;;8.00;99.90;;;;;;12400184;28;20042;-35
2023/05/17 23:08:51;;;;;;;7.50;3.00;;;8.00;99.90;;;;;;12394520;28;20043;-35
2023/05/17 23:14:56;;;;;;;11.05;3.20;;;7.90;99.90;;;;;;12454500;28;20497;-35
2023/05/17 23:20:59;;;;;;;6.35;2.60;;;7.80;99.90;;;;;;12422311;28;20111;-35
2023/05/17 23:27:02;;;;;;;6.82;2.63;;;7.80;99.90;;;;;;12454776;28;20200;-35
2023/05/17 23:33:04;;;;;;;6.07;3.00;;;7.80;99.90;;;;;;12448170;28;20553;-35
2023/05/17 23:39:07;;;;;;;7.07;3.00;;;7.80;99.90;;;;;;12453774;28;20410;-35
2023/05/17 23:45:10;;;;;;;10.60;2.83;;;7.80;99.90;;;;;;12459557;28;20131;-35
2023/05/17 23:51:13;;;;;;;10.63;3.13;;;7.80;99.90;;;;;;12447721;28;20120;-35
2023/05/17 23:57:15;;;;;;;5.32;2.67;;;7.70;99.90;;;;;;12443051;28;20050;-35
